Time;durP1;ratioP1;P1;durP2;ratioP2;P2;SDS_P1;SDS_P2;PMS_P1;PMS_P2;Temp;Humidity;BMP_temperature;BMP_pressure;BME280_temperature;BME280_humidity;BME280_pressure;Samples;Min_cycle;Max_cycle;Signal;HPM_P1;HPM_P2
2022/01/16 00:04:06;;;;;;;76.18;27.65;;;3.80;99.90;;;;;;5115086;27;20118;-66
2022/01/16 00:06:33;;;;;;;72.00;26.30;;;3.70;99.90;;;;;;5133906;27;20058;-66
2022/01/16 00:08:59;;;;;;;70.47;26.92;;;3.70;99.90;;;;;;5115534;27;20035;-66
2022/01/16 00:11:25;;;;;;;73.57;28.02;;;3.60;99.90;;;;;;5133577;27;20038;-66
2022/01/16 00:13:51;;;;;;;68.43;28.55;;;3.60;99.90;;;;;;5133276;27;20084;-66
2022/01/16 00:16:17;;;;;;;71.40;25.40;;;3.70;99.90;;;;;;5114813;27;20073;-66
2022/01/16 00:18:52;;;;;;;72.10;26.90;;;3.60;99.90;;;;;;5133580;27;20471;-66
2022/01/16 00:21:31;;;;;;;68.32;28.45;;;3.60;99.90;;;;;;5115119;27;20156;-66
2022/01/16 00:23:56;;;;;;;62.13;26.63;;;3.60;99.90;;;;;;5114849;27;20505;-66
2022/01/16 00:26:23;;;;;;;66.80;26.15;;;3.60;99.90;;;;;;5115055;27;20040;-66
2022/01/16 00:28:49;;;;;;;64.55;26.63;;;3.60;99.90;;;;;;5115345;27;20043;-66
2022/01/16 00:31:17;;;;;;;67.25;26.58;;;3.60;99.90;;;;;;5114738;27;20096;-66
2022/01/16 00:33:44;;;;;;;73.95;28.17;;;3.60;99.90;;;;;;5114385;27;20047;-66
2022/01/16 00:36:11;;;;;;;63.35;25.35;;;3.50;99.90;;;;;;5133102;27;20046;-66
2022/01/16 00:38:40;;;;;;;63.10;26.20;;;3.60;99.90;;;;;;5114740;27;20041;-66
2022/01/16 00:41:05;;;;;;;62.75;25.45;;;3.60;99.90;;;;;;5132776;27;20088;-66
2022/01/16 00:43:31;;;;;;;61.25;25.80;;;3.60;99.90;;;;;;5114368;27;20035;-66
2022/01/16 00:45:56;;;;;;;67.63;27.77;;;3.60;99.90;;;;;;5133093;27;20027;-66
2022/01/16 00:48:22;;;;;;;66.65;27.25;;;3.60;99.90;;;;;;5114728;27;20035;-66
2022/01/16 00:50:48;;;;;;;68.65;28.63;;;3.60;99.90;;;;;;5114309;27;20039;-66
2022/01/16 00:53:13;;;;;;;65.32;26.50;;;3.60;99.90;;;;;;5114344;27;20529;-66
2022/01/16 00:55:40;;;;;;;73.95;28.48;;;3.60;99.90;;;;;;5114552;28;20047;-66
2022/01/16 00:58:06;;;;;;;71.30;27.90;;;3.50;99.90;;;;;;5114438;27;20066;-66
2022/01/16 01:00:33;;;;;;;67.40;25.48;;;3.50;99.90;;;;;;5097239;27;20443;-66
2022/01/16 01:03:00;;;;;;;66.43;26.10;;;3.50;99.90;;;;;;5113899;27;20071;-66
2022/01/16 01:05:26;;;;;;;61.70;26.90;;;3.50;99.90;;;;;;5104948;28;20067;-66
2022/01/16 01:07:52;;;;;;;72.82;27.75;;;3.60;99.90;;;;;;5116382;27;20039;-66
2022/01/16 01:10:19;;;;;;;64.40;25.40;;;3.60;99.90;;;;;;5114334;28;20046;-66
2022/01/16 01:13:07;;;;;;;74.25;27.48;;;3.60;99.90;;;;;;5113847;27;20045;-66
2022/01/16 01:15:41;;;;;;;74.05;28.15;;;3.50;99.90;;;;;;5114347;28;20046;-66
2022/01/16 01:18:07;;;;;;;66.30;26.20;;;3.60;99.90;;;;;;5114330;28;20043;-66
2022/01/16 01:20:34;;;;;;;70.20;28.55;;;3.50;99.90;;;;;;5114266;28;20050;-66
2022/01/16 01:23:00;;;;;;;76.50;27.80;;;3.50;99.90;;;;;;5113711;28;20047;-66
2022/01/16 01:25:26;;;;;;;72.15;27.45;;;3.60;99.90;;;;;;5114154;28;20039;-66
2022/01/16 01:27:51;;;;;;;64.57;25.45;;;3.50;99.90;;;;;;5114002;28;20039;-66
2022/01/16 01:30:20;;;;;;;67.13;26.58;;;3.50;99.90;;;;;;5114138;28;20039;-66
2022/01/16 01:32:47;;;;;;;73.15;27.17;;;3.50;99.90;;;;;;5113639;27;20051;-66
2022/01/16 01:35:15;;;;;;;68.43;26.98;;;3.40;99.90;;;;;;5114127;28;20043;-66
2022/01/16 01:37:41;;;;;;;68.25;26.13;;;3.30;99.90;;;;;;5132423;28;20050;-66
2022/01/16 01:40:11;;;;;;;77.28;28.23;;;3.40;99.90;;;;;;5114312;28;20376;-66
2022/01/16 01:42:48;;;;;;;75.13;28.55;;;3.30;99.90;;;;;;5113651;27;20061;-66
2022/01/16 01:51:27;;;;;;;74.13;27.50;;;3.40;99.90;;;;;;5118022;27;20051;-66
2022/01/16 01:53:55;;;;;;;77.20;27.98;;;3.40;99.90;;;;;;5117742;27;20043;-66
2022/01/16 01:56:23;;;;;;;69.97;27.42;;;3.30;99.90;;;;;;5118197;27;20092;-66
2022/01/16 01:58:50;;;;;;;70.22;26.70;;;3.30;99.90;;;;;;5118284;27;20163;-66
2022/01/16 02:01:16;;;;;;;65.22;26.50;;;3.40;99.90;;;;;;5117469;27;20039;-66
2022/01/16 02:06:14;;;;;;;67.43;26.98;;;3.30;99.90;;;;;;5118176;27;20117;-66
2022/01/16 02:08:45;;;;;;;69.25;25.02;;;3.30;99.90;;;;;;5117896;27;20069;-66
2022/01/16 02:11:15;;;;;;;70.70;25.75;;;3.20;99.90;;;;;;5117769;27;20066;-66
2022/01/16 02:14:03;;;;;;;62.40;24.70;;;3.10;99.90;;;;;;5135872;27;20035;-66
2022/01/16 02:28:07;;;;;;;74.03;27.10;;;3.20;99.90;;;;;;5117191;27;20407;-66
2022/01/16 02:36:02;;;;;;;75.72;26.30;;;3.10;99.90;;;;;;5117240;27;20527;-66
2022/01/16 02:38:28;;;;;;;72.80;27.42;;;3.10;99.90;;;;;;5116893;27;20079;-66
2022/01/16 02:41:01;;;;;;;74.03;26.58;;;3.20;99.90;;;;;;5117014;27;20039;-66
2022/01/16 02:43:32;;;;;;;77.50;26.00;;;3.20;99.90;;;;;;5116471;27;20053;-66
2022/01/16 02:47:00;;;;;;;70.47;26.20;;;3.20;99.90;;;;;;5135534;27;20045;-66
2022/01/16 02:48:55;;;;;;;78.95;26.48;;;3.20;99.90;;;;;;5099485;27;20051;-66
2022/01/16 02:51:24;;;;;;;76.13;27.60;;;3.20;99.90;;;;;;5116902;27;20035;-66
2022/01/16 02:53:50;;;;;;;75.60;26.20;;;3.10;99.90;;;;;;5116369;27;20070;-66
2022/01/16 02:56:18;;;;;;;82.57;28.65;;;3.10;99.90;;;;;;5135212;27;20039;-66
2022/01/16 02:58:45;;;;;;;76.43;26.77;;;3.10;99.90;;;;;;5135164;27;20508;-66
2022/01/16 03:01:11;;;;;;;84.35;27.63;;;3.00;99.90;;;;;;5115393;27;20082;-66
2022/01/16 03:03:37;;;;;;;73.50;29.88;;;3.00;99.90;;;;;;5116140;27;20046;-66
2022/01/16 03:06:03;;;;;;;84.82;28.88;;;2.90;99.90;;;;;;5134791;27;20483;-66
2022/01/16 03:08:29;;;;;;;81.30;31.00;;;2.90;99.90;;;;;;5135001;27;20487;-66
2022/01/16 03:13:33;;;;;;;90.32;31.15;;;3.00;99.90;;;;;;5134581;27;20053;-66
2022/01/16 03:15:59;;;;;;;78.03;27.88;;;2.90;99.90;;;;;;5134781;27;20057;-66
2022/01/16 03:23:35;;;;;;;95.30;30.05;;;2.90;99.90;;;;;;5115794;27;20043;-66
2022/01/16 03:26:01;;;;;;;87.10;31.05;;;3.10;99.90;;;;;;5116021;27;20412;-66
2022/01/16 03:28:27;;;;;;;88.50;30.33;;;2.90;99.90;;;;;;5116008;27;20512;-66
2022/01/16 03:30:54;;;;;;;81.90;29.13;;;3.00;99.90;;;;;;5134547;27;20115;-66
2022/01/16 03:33:20;;;;;;;96.95;31.90;;;3.00;99.90;;;;;;5115621;27;20039;-66
2022/01/16 03:35:47;;;;;;;88.65;30.50;;;3.10;99.90;;;;;;5134486;27;20035;-66
2022/01/16 03:38:13;;;;;;;94.28;31.90;;;3.10;99.90;;;;;;5134369;27;20070;-66
2022/01/16 03:40:39;;;;;;;83.40;28.85;;;3.20;99.90;;;;;;5115717;27;20074;-66
2022/01/16 03:43:14;;;;;;;87.75;29.23;;;3.10;99.90;;;;;;5115471;27;20078;-67
2022/01/16 03:45:45;;;;;;;87.30;30.45;;;3.20;99.90;;;;;;5115910;27;20509;-66
2022/01/16 03:48:11;;;;;;;92.50;30.35;;;3.10;99.90;;;;;;5116478;27;20544;-66
2022/01/16 03:50:37;;;;;;;93.38;30.80;;;3.10;99.90;;;;;;5134392;27;20043;-66
2022/01/16 03:53:04;;;;;;;92.05;30.25;;;3.30;99.90;;;;;;5115425;27;20673;-66
2022/01/16 03:55:31;;;;;;;90.60;28.63;;;3.20;99.90;;;;;;5115754;27;20049;-66
2022/01/16 03:57:57;;;;;;;89.22;30.25;;;3.20;99.90;;;;;;5134121;27;20035;-66
2022/01/16 04:00:23;;;;;;;79.15;29.42;;;3.20;99.90;;;;;;5115942;27;20039;-66
2022/01/16 04:02:48;;;;;;;88.95;31.33;;;3.30;99.90;;;;;;5133657;27;20114;-66
2022/01/16 04:05:14;;;;;;;91.78;29.30;;;3.30;99.90;;;;;;5115746;27;20050;-66
2022/01/16 04:07:40;;;;;;;88.13;28.98;;;3.30;99.90;;;;;;5115388;27;20050;-66
2022/01/16 04:10:08;;;;;;;84.47;29.33;;;3.40;99.90;;;;;;5133706;27;20039;-66
2022/01/16 04:12:35;;;;;;;80.55;30.17;;;3.30;99.90;;;;;;5114637;27;20096;-66
2022/01/16 04:17:27;;;;;;;85.43;28.80;;;3.30;99.90;;;;;;5115143;27;20055;-66
2022/01/16 04:19:53;;;;;;;91.47;31.33;;;3.40;99.90;;;;;;5133489;27;20046;-66
2022/01/16 04:22:19;;;;;;;82.35;29.73;;;3.40;99.90;;;;;;5114707;27;20144;-66
2022/01/16 04:24:45;;;;;;;89.32;28.33;;;3.50;99.90;;;;;;5114850;27;20047;-66
2022/01/16 04:27:11;;;;;;;84.15;29.92;;;3.50;99.90;;;;;;5115299;27;20180;-66
2022/01/16 04:29:38;;;;;;;77.32;27.13;;;3.30;99.90;;;;;;5133396;27;20122;-66
2022/01/16 04:32:04;;;;;;;82.22;29.55;;;3.30;99.90;;;;;;5114510;27;20058;-66
2022/01/16 04:34:30;;;;;;;84.55;29.30;;;3.30;99.90;;;;;;5114613;27;20046;-66
2022/01/16 04:36:56;;;;;;;84.30;29.23;;;3.40;99.90;;;;;;5114895;27;20050;-66
2022/01/16 04:39:30;;;;;;;82.30;30.05;;;3.40;99.90;;;;;;5114755;27;20041;-66
2022/01/16 04:44:40;;;;;;;80.43;29.08;;;3.30;99.90;;;;;;5132945;27;20039;-66
2022/01/16 04:47:05;;;;;;;93.57;30.00;;;3.30;99.90;;;;;;5133163;27;20062;-66
2022/01/16 04:49:31;;;;;;;92.07;29.50;;;3.30;99.90;;;;;;5114743;27;20035;-66
2022/01/16 04:51:56;;;;;;;90.40;31.10;;;3.50;99.90;;;;;;5132682;27;20047;-66
2022/01/16 04:54:22;;;;;;;87.05;31.70;;;3.40;99.90;;;;;;5114575;27;20117;-66
2022/01/16 04:56:48;;;;;;;81.75;29.27;;;3.50;99.90;;;;;;5114537;27;20457;-66
2022/01/16 04:59:13;;;;;;;77.13;26.50;;;3.40;99.90;;;;;;5114467;27;20043;-66
2022/01/16 05:01:39;;;;;;;82.95;28.70;;;3.40;99.90;;;;;;5114066;27;20035;-66
2022/01/16 05:04:04;;;;;;;86.40;30.70;;;3.40;99.90;;;;;;5132591;27;20042;-66
2022/01/16 05:06:30;;;;;;;81.45;27.20;;;3.70;99.90;;;;;;5114308;27;20118;-66
2022/01/16 05:08:56;;;;;;;80.95;27.83;;;3.50;99.90;;;;;;5097533;27;20494;-66
2022/01/16 05:11:25;;;;;;;88.93;29.52;;;3.30;99.90;;;;;;5114391;27;20388;-66
2022/01/16 05:19:08;;;;;;;85.20;28.67;;;3.50;99.90;;;;;;5132413;28;20072;-66
2022/01/16 05:21:34;;;;;;;78.57;28.52;;;3.50;99.90;;;;;;5132467;28;20091;-66
2022/01/16 05:24:03;;;;;;;89.95;31.63;;;3.60;99.90;;;;;;5115710;27;20436;-66
2022/01/16 05:26:29;;;;;;;80.45;29.60;;;3.60;99.90;;;;;;5118581;27;20050;-66
2022/01/16 05:28:55;;;;;;;79.45;29.92;;;3.50;99.90;;;;;;5118220;27;20043;-66
2022/01/16 05:31:22;;;;;;;81.22;31.33;;;3.60;99.90;;;;;;5101696;27;20525;-66
2022/01/16 05:33:48;;;;;;;82.80;30.15;;;3.60;99.90;;;;;;5117816;27;20038;-66
2022/01/16 05:36:13;;;;;;;81.55;31.10;;;3.60;99.90;;;;;;5136775;27;20486;-66
2022/01/16 05:38:39;;;;;;;87.07;30.35;;;3.60;99.90;;;;;;5136622;27;20086;-66
2022/01/16 05:41:05;;;;;;;85.80;30.92;;;3.60;99.90;;;;;;5101245;27;20118;-66
2022/01/16 05:43:30;;;;;;;90.10;31.27;;;3.50;99.90;;;;;;5117724;27;20405;-66
2022/01/16 05:45:56;;;;;;;84.63;30.83;;;3.60;99.90;;;;;;5118258;27;20046;-66
2022/01/16 05:48:22;;;;;;;84.72;29.98;;;3.60;99.90;;;;;;5118263;27;20483;-66
2022/01/16 05:50:47;;;;;;;82.32;29.60;;;3.60;99.90;;;;;;5136133;27;20039;-66
2022/01/16 05:53:14;;;;;;;81.75;28.83;;;3.60;99.90;;;;;;5117877;27;20085;-66
2022/01/16 05:55:40;;;;;;;86.70;32.05;;;3.70;99.90;;;;;;5117902;27;20123;-66
2022/01/16 05:58:10;;;;;;;79.97;30.58;;;3.60;99.90;;;;;;5117677;27;20046;-66
2022/01/16 06:00:37;;;;;;;82.25;29.83;;;3.70;99.90;;;;;;5117733;27;20054;-66
2022/01/16 06:03:03;;;;;;;91.18;32.67;;;3.70;99.90;;;;;;5117465;27;20075;-66
2022/01/16 06:05:29;;;;;;;88.30;32.35;;;3.70;99.90;;;;;;5117694;27;20519;-66
2022/01/16 06:08:07;;;;;;;84.28;30.83;;;3.70;99.90;;;;;;5117863;27;20050;-66
2022/01/16 06:10:33;;;;;;;92.65;32.88;;;3.60;99.90;;;;;;5136014;27;20066;-66
2022/01/16 06:12:58;;;;;;;86.55;30.90;;;3.60;99.90;;;;;;5117310;27;20551;-66
2022/01/16 06:15:24;;;;;;;91.68;31.58;;;3.70;99.90;;;;;;5117587;27;20164;-66
2022/01/16 06:17:50;;;;;;;94.53;34.65;;;3.60;99.90;;;;;;5117346;27;20494;-67
2022/01/16 06:20:15;;;;;;;87.25;30.88;;;3.80;99.90;;;;;;5135845;27;20123;-67
2022/01/16 06:22:42;;;;;;;97.38;31.17;;;3.70;99.90;;;;;;5117026;27;20043;-66
2022/01/16 06:25:08;;;;;;;86.78;31.80;;;3.70;99.90;;;;;;5117368;27;20049;-66
2022/01/16 06:27:34;;;;;;;89.13;31.48;;;3.70;99.90;;;;;;5117504;27;20039;-66
2022/01/16 06:29:59;;;;;;;97.18;34.17;;;3.70;99.90;;;;;;5117640;27;20034;-67
2022/01/16 06:32:25;;;;;;;83.90;30.55;;;3.60;99.90;;;;;;5116799;27;20039;-67
2022/01/16 06:34:51;;;;;;;94.93;31.60;;;3.70;99.90;;;;;;5116795;27;20568;-67
2022/01/16 06:37:16;;;;;;;98.22;33.30;;;3.70;99.90;;;;;;5117011;27;20047;-67
2022/01/16 06:39:42;;;;;;;92.30;30.13;;;3.80;99.90;;;;;;5135686;27;20035;-67
2022/01/16 06:42:08;;;;;;;93.95;31.65;;;3.80;99.90;;;;;;5116619;27;20114;-66
2022/01/16 06:44:33;;;;;;;88.88;31.13;;;3.90;99.90;;;;;;5135311;27;20447;-66
2022/01/16 06:46:59;;;;;;;85.90;29.30;;;3.80;99.90;;;;;;5099934;27;20084;-66
2022/01/16 06:49:24;;;;;;;93.05;31.10;;;3.90;99.90;;;;;;5135257;27;20039;-67
2022/01/16 06:51:50;;;;;;;84.60;31.00;;;3.80;99.90;;;;;;5116599;27;20047;-66
2022/01/16 06:54:16;;;;;;;97.38;35.65;;;3.80;99.90;;;;;;5116712;27;20039;-66
2022/01/16 06:56:41;;;;;;;100.00;32.47;;;3.80;99.90;;;;;;5135287;27;20507;-66
2022/01/16 06:59:07;;;;;;;93.32;29.90;;;3.80;99.90;;;;;;5116895;27;20046;-66
2022/01/16 07:01:32;;;;;;;91.85;33.22;;;3.90;99.90;;;;;;5116733;27;20119;-67
2022/01/16 07:03:58;;;;;;;86.35;29.50;;;3.90;99.90;;;;;;5134710;27;20039;-66
2022/01/16 07:06:23;;;;;;;93.78;30.45;;;3.90;99.90;;;;;;5116628;27;20042;-66
2022/01/16 07:08:49;;;;;;;91.60;30.42;;;3.90;99.90;;;;;;5116600;27;20398;-67
2022/01/16 07:11:15;;;;;;;92.60;31.63;;;4.00;99.90;;;;;;5116527;27;20043;-66
2022/01/16 07:13:41;;;;;;;87.32;29.48;;;3.90;99.90;;;;;;5116128;27;20507;-66
2022/01/16 07:16:07;;;;;;;87.32;30.45;;;4.00;99.90;;;;;;5134893;27;20118;-66
2022/01/16 07:18:32;;;;;;;90.20;30.70;;;4.10;99.90;;;;;;5116008;27;20046;-66
2022/01/16 07:20:58;;;;;;;86.43;30.35;;;4.00;99.90;;;;;;5116331;27;20108;-67
2022/01/16 07:23:24;;;;;;;87.43;30.42;;;4.10;99.90;;;;;;5134353;27;20065;-66
2022/01/16 07:25:50;;;;;;;90.60;30.63;;;4.10;99.90;;;;;;5116293;27;20039;-66
2022/01/16 07:28:16;;;;;;;90.20;30.77;;;4.00;99.90;;;;;;5116248;27;20092;-67
2022/01/16 07:30:43;;;;;;;89.50;31.02;;;4.10;99.90;;;;;;5134513;27;20115;-66
2022/01/16 07:33:09;;;;;;;82.85;29.27;;;4.10;99.90;;;;;;5115685;27;20070;-66
2022/01/16 07:35:36;;;;;;;91.60;30.60;;;4.10;99.90;;;;;;5116697;27;20232;-66
2022/01/16 07:38:02;;;;;;;85.93;30.17;;;4.20;99.90;;;;;;5094637;28;20069;-67
2022/01/16 07:40:28;;;;;;;82.40;30.27;;;4.10;99.90;;;;;;5094576;28;20036;-66
2022/01/16 07:42:54;;;;;;;91.38;31.63;;;4.20;99.90;;;;;;5093753;28;20050;-66
2022/01/16 07:45:20;;;;;;;88.00;32.05;;;4.10;99.90;;;;;;5094584;28;20072;-66
2022/01/16 07:47:46;;;;;;;89.65;32.20;;;4.20;99.90;;;;;;5093672;28;20039;-66
2022/01/16 07:50:13;;;;;;;90.03;30.63;;;4.30;99.90;;;;;;5112621;28;20039;-67
2022/01/16 07:52:39;;;;;;;81.70;31.05;;;4.20;99.90;;;;;;5093813;28;20055;-67
2022/01/16 07:55:05;;;;;;;86.25;30.63;;;4.20;99.90;;;;;;5094207;28;20043;-67
2022/01/16 07:57:31;;;;;;;82.93;30.02;;;4.20;99.90;;;;;;5094475;28;20055;-67
2022/01/16 07:59:57;;;;;;;76.47;29.92;;;4.20;99.90;;;;;;5102866;27;20042;-67
2022/01/16 08:02:22;;;;;;;93.47;30.27;;;4.30;99.90;;;;;;5131545;27;20122;-67
2022/01/16 08:04:48;;;;;;;84.32;29.73;;;4.30;99.90;;;;;;5112842;27;20035;-67
2022/01/16 08:07:13;;;;;;;90.40;31.65;;;4.30;99.90;;;;;;5112685;27;20039;-67
2022/01/16 08:09:40;;;;;;;87.53;30.27;;;4.30;99.90;;;;;;5112011;27;20031;-67
2022/01/16 08:12:07;;;;;;;84.43;30.48;;;4.30;99.90;;;;;;5132674;27;20043;-67
2022/01/16 08:14:34;;;;;;;84.30;29.40;;;4.30;99.90;;;;;;5115199;27;20056;-67
2022/01/16 08:17:00;;;;;;;85.38;29.08;;;4.40;99.90;;;;;;5113012;27;20074;-66
2022/01/16 08:19:26;;;;;;;81.30;30.23;;;4.40;99.90;;;;;;5131098;27;20144;-65
2022/01/16 08:21:52;;;;;;;82.75;30.48;;;4.40;99.90;;;;;;5097583;27;20075;-65
2022/01/16 08:24:17;;;;;;;90.43;32.17;;;4.50;99.90;;;;;;5112488;27;20070;-65
2022/01/16 08:26:43;;;;;;;88.75;31.70;;;4.50;99.90;;;;;;5113494;27;20046;-65
2022/01/16 08:29:09;;;;;;;79.38;30.75;;;4.50;99.90;;;;;;5114373;27;20043;-65
2022/01/16 08:31:35;;;;;;;82.00;29.88;;;4.50;99.90;;;;;;5113730;27;20075;-65
2022/01/16 08:34:00;;;;;;;87.80;31.67;;;4.60;99.90;;;;;;5113931;27;20111;-65
2022/01/16 08:36:26;;;;;;;77.53;30.05;;;4.60;99.90;;;;;;5114375;27;20034;-65
2022/01/16 08:38:53;;;;;;;84.13;31.92;;;4.50;99.90;;;;;;5114937;27;20114;-65
2022/01/16 08:41:19;;;;;;;89.40;32.60;;;4.50;99.90;;;;;;5133413;27;20051;-65
2022/01/16 08:43:45;;;;;;;83.45;30.60;;;4.60;99.90;;;;;;5114455;27;20039;-65
2022/01/16 08:46:12;;;;;;;78.10;30.88;;;4.60;99.90;;;;;;5133112;27;20039;-65
2022/01/16 08:48:37;;;;;;;80.32;30.77;;;4.70;99.90;;;;;;5114763;27;20100;-65
2022/01/16 08:51:03;;;;;;;83.65;30.27;;;4.80;99.90;;;;;;5097980;27;20039;-65
2022/01/16 08:53:28;;;;;;;74.05;29.20;;;4.70;99.90;;;;;;5097303;27;20043;-65
2022/01/16 08:55:54;;;;;;;84.43;31.70;;;4.60;99.90;;;;;;5133058;27;20038;-64
2022/01/16 08:58:20;;;;;;;77.32;29.95;;;4.70;99.90;;;;;;5114369;27;20039;-66
2022/01/16 09:00:47;;;;;;;80.72;30.83;;;4.70;99.90;;;;;;5132597;27;20038;-65
2022/01/16 09:03:13;;;;;;;81.07;31.27;;;4.80;99.90;;;;;;5113760;27;20474;-65
2022/01/16 09:05:39;;;;;;;76.50;30.40;;;4.70;99.90;;;;;;5132849;27;20072;-65
2022/01/16 09:08:04;;;;;;;70.95;28.83;;;4.70;99.90;;;;;;5112153;28;20111;-65
2022/01/16 09:10:30;;;;;;;82.63;31.75;;;4.70;99.90;;;;;;5114652;27;20045;-65
2022/01/16 09:12:55;;;;;;;87.07;32.47;;;4.80;99.90;;;;;;5114133;27;20072;-65
2022/01/16 09:15:23;;;;;;;76.75;30.45;;;4.80;99.90;;;;;;5113635;27;20046;-65
2022/01/16 09:17:48;;;;;;;83.15;30.65;;;4.80;99.90;;;;;;5114161;28;20043;-65
2022/01/16 09:20:15;;;;;;;76.25;30.35;;;4.90;99.90;;;;;;5114223;28;20426;-65
2022/01/16 09:22:45;;;;;;;78.05;29.25;;;4.80;99.90;;;;;;5132710;28;20036;-65
2022/01/16 09:25:13;;;;;;;75.13;30.48;;;4.90;99.90;;;;;;5114765;28;20462;-66
2022/01/16 09:27:39;;;;;;;76.28;29.73;;;4.90;99.90;;;;;;5132645;28;20114;-66
2022/01/16 09:30:06;;;;;;;82.07;31.70;;;5.00;99.90;;;;;;5114857;28;20575;-66
2022/01/16 09:32:33;;;;;;;75.65;29.83;;;5.00;99.90;;;;;;5117596;28;20082;-67
2022/01/16 09:35:00;;;;;;;74.15;30.20;;;5.00;99.90;;;;;;5117845;28;20065;-66
2022/01/16 09:37:26;;;;;;;72.60;30.30;;;5.00;99.90;;;;;;5132977;28;20039;-67
2022/01/16 09:39:54;;;;;;;75.13;29.48;;;5.10;99.90;;;;;;5114674;28;20084;-67
2022/01/16 09:42:21;;;;;;;72.97;31.30;;;5.00;99.90;;;;;;5113994;28;20074;-67
2022/01/16 09:44:47;;;;;;;74.50;30.48;;;5.00;99.90;;;;;;5114209;28;20491;-66
2022/01/16 09:47:13;;;;;;;75.57;29.05;;;5.10;99.90;;;;;;5118312;28;20043;-66
2022/01/16 09:49:40;;;;;;;76.07;30.88;;;5.10;99.90;;;;;;5119042;28;20066;-66
2022/01/16 09:52:06;;;;;;;82.85;31.90;;;5.10;99.90;;;;;;5099101;28;20046;-66
2022/01/16 09:54:32;;;;;;;66.07;29.20;;;5.10;99.90;;;;;;5132811;28;20122;-65
2022/01/16 09:56:58;;;;;;;70.35;29.98;;;5.10;99.90;;;;;;5132651;28;20176;-65
2022/01/16 09:59:24;;;;;;;72.28;28.63;;;5.20;99.90;;;;;;5096484;28;20046;-65
2022/01/16 10:01:50;;;;;;;66.40;28.13;;;5.20;99.90;;;;;;5106353;28;20554;-65
2022/01/16 10:04:35;;;;;;;70.60;28.90;;;5.10;99.90;;;;;;5140389;27;20030;-66
2022/01/16 10:07:05;;;;;;;74.97;30.67;;;5.20;99.90;;;;;;5136618;27;20039;-66
2022/01/16 10:09:33;;;;;;;73.30;28.38;;;5.20;99.90;;;;;;5130588;27;20418;-66
2022/01/16 10:12:02;;;;;;;69.05;28.70;;;5.30;99.90;;;;;;5117311;27;20043;-65
2022/01/16 10:14:30;;;;;;;66.25;27.75;;;5.30;99.90;;;;;;5135674;27;20395;-66
2022/01/16 10:16:55;;;;;;;74.50;30.58;;;5.30;99.90;;;;;;5117266;27;20042;-65
2022/01/16 10:19:30;;;;;;;72.18;29.17;;;5.30;99.90;;;;;;5099927;27;20035;-65
2022/01/16 10:22:03;;;;;;;74.15;29.67;;;5.30;99.90;;;;;;5145157;27;20399;-65
2022/01/16 10:24:32;;;;;;;68.22;29.08;;;5.30;99.90;;;;;;5123921;27;20043;-65
2022/01/16 10:27:14;;;;;;;68.93;30.80;;;5.30;99.90;;;;;;5146448;27;20041;-66
2022/01/16 10:29:51;;;;;;;69.70;29.50;;;5.40;99.90;;;;;;5117873;27;20031;-66
2022/01/16 10:32:41;;;;;;;61.05;28.85;;;5.40;99.90;;;;;;5115497;27;20072;-66
2022/01/16 10:35:11;;;;;;;71.50;30.95;;;5.40;99.90;;;;;;5111325;27;20050;-65
2022/01/16 10:37:42;;;;;;;65.05;30.08;;;5.40;99.90;;;;;;5100069;27;20031;-66
2022/01/16 10:40:14;;;;;;;61.70;28.38;;;5.50;99.90;;;;;;5114030;27;20127;-66
2022/01/16 10:42:41;;;;;;;58.87;26.47;;;5.50;99.90;;;;;;5117018;27;20496;-68
2022/01/16 10:45:13;;;;;;;61.53;26.75;;;5.60;99.90;;;;;;5117903;27;20425;-67
2022/01/16 10:47:47;;;;;;;66.15;27.38;;;5.50;99.90;;;;;;5136604;27;20460;-68
2022/01/16 10:50:19;;;;;;;67.88;27.55;;;5.60;99.90;;;;;;5118177;27;20527;-68
2022/01/16 10:53:27;;;;;;;58.33;26.90;;;5.60;99.90;;;;;;5117433;27;20049;-68
2022/01/16 10:55:55;;;;;;;60.67;26.73;;;5.60;99.90;;;;;;5035349;28;20053;-68
2022/01/16 10:58:37;;;;;;;58.15;27.23;;;5.60;99.90;;;;;;5035253;28;20124;-68
2022/01/16 11:01:16;;;;;;;59.10;27.02;;;5.60;99.90;;;;;;5086255;27;20066;-68
2022/01/16 11:03:47;;;;;;;53.15;24.88;;;5.70;99.90;;;;;;5135297;27;20046;-68
2022/01/16 11:06:15;;;;;;;56.42;24.48;;;5.70;99.90;;;;;;5117012;27;20483;-68
2022/01/16 11:08:49;;;;;;;53.70;24.98;;;5.70;99.90;;;;;;5116934;27;20494;-68
2022/01/16 11:11:15;;;;;;;57.10;26.40;;;5.80;99.90;;;;;;5120334;27;20046;-69
2022/01/16 11:13:40;;;;;;;52.92;25.10;;;5.70;99.90;;;;;;5121888;27;20045;-68
2022/01/16 11:16:07;;;;;;;48.72;23.40;;;5.80;99.90;;;;;;5137492;27;20039;-69
2022/01/16 11:18:38;;;;;;;55.15;25.65;;;5.70;99.90;;;;;;5135205;27;20051;-69
2022/01/16 11:21:15;;;;;;;59.72;25.35;;;5.80;99.90;;;;;;5134135;27;20500;-68
2022/01/16 11:26:14;;;;;;;56.72;24.70;;;5.80;99.90;;;;;;5135147;27;20403;-66
2022/01/16 11:28:40;;;;;;;47.05;23.45;;;5.80;99.90;;;;;;5135380;27;20042;-67
2022/01/16 11:31:09;;;;;;;58.42;23.75;;;5.80;99.90;;;;;;5134874;27;20171;-68
2022/01/16 11:33:37;;;;;;;53.30;23.20;;;5.80;99.90;;;;;;5116327;27;20054;-68
2022/01/16 11:36:08;;;;;;;52.72;23.08;;;5.90;99.90;;;;;;5116238;27;20050;-68
2022/01/16 11:38:35;;;;;;;52.83;24.00;;;5.80;99.90;;;;;;5099321;27;20047;-67
2022/01/16 11:41:16;;;;;;;50.65;22.00;;;5.90;99.90;;;;;;5116270;27;20043;-67
2022/01/16 11:43:48;;;;;;;49.00;21.40;;;5.90;99.90;;;;;;5098351;27;20039;-67
2022/01/16 11:46:20;;;;;;;45.60;21.17;;;5.90;99.90;;;;;;5116228;27;20499;-67
2022/01/16 11:48:59;;;;;;;42.60;19.58;;;6.00;99.90;;;;;;5134014;27;20118;-67
2022/01/16 11:51:37;;;;;;;37.33;18.15;;;6.00;99.90;;;;;;5134188;27;20437;-67
2022/01/16 11:54:09;;;;;;;37.42;17.83;;;6.00;99.90;;;;;;5133754;27;20110;-67
2022/01/16 11:56:38;;;;;;;32.57;15.90;;;6.00;99.90;;;;;;5134349;27;20050;-68
2022/01/16 11:59:40;;;;;;;30.90;15.30;;;6.00;99.90;;;;;;5115502;27;20277;-67
2022/01/16 12:02:08;;;;;;;34.67;13.80;;;6.10;99.90;;;;;;5017650;28;20099;-67
2022/01/16 12:04:34;;;;;;;33.25;14.18;;;6.10;99.90;;;;;;5106834;27;20051;-67
2022/01/16 12:07:05;;;;;;;27.70;13.23;;;6.10;99.90;;;;;;5137294;27;20042;-68
2022/01/16 12:09:34;;;;;;;28.13;13.75;;;6.10;99.90;;;;;;5115743;27;20091;-68
2022/01/16 12:11:59;;;;;;;24.88;12.70;;;6.20;99.90;;;;;;5133043;27;20400;-68
2022/01/16 12:14:59;;;;;;;20.90;12.35;;;6.20;99.90;;;;;;5134298;27;20037;-68
2022/01/16 12:17:27;;;;;;;27.42;12.18;;;6.20;99.90;;;;;;5100639;27;20058;-68
2022/01/16 12:19:56;;;;;;;32.78;12.63;;;6.20;99.90;;;;;;5098519;27;20050;-68
2022/01/16 12:22:44;;;;;;;21.30;11.35;;;6.20;99.90;;;;;;5115168;27;20110;-69
2022/01/16 12:25:18;;;;;;;22.45;11.27;;;6.20;99.90;;;;;;5115252;27;20050;-68
2022/01/16 12:27:54;;;;;;;22.02;11.25;;;6.30;99.90;;;;;;5114745;27;20039;-68
2022/01/16 12:30:33;;;;;;;23.45;11.25;;;6.30;99.90;;;;;;5114808;27;20066;-68
2022/01/16 12:33:20;;;;;;;31.92;12.48;;;6.30;99.90;;;;;;5132745;27;20046;-68
2022/01/16 12:35:50;;;;;;;20.08;11.52;;;6.30;99.90;;;;;;5099465;27;20066;-68
2022/01/16 12:38:20;;;;;;;24.42;12.32;;;6.30;99.90;;;;;;5115990;27;20046;-68
2022/01/16 12:40:51;;;;;;;19.00;10.82;;;6.40;99.90;;;;;;5114997;27;20506;-68
2022/01/16 12:43:25;;;;;;;27.65;12.50;;;6.40;99.90;;;;;;5114672;27;20043;-68
2022/01/16 12:45:51;;;;;;;20.95;11.27;;;6.40;99.90;;;;;;5113892;27;20106;-68
2022/01/16 12:48:17;;;;;;;24.70;10.75;;;6.40;99.90;;;;;;5114638;27;20118;-68
2022/01/16 12:50:42;;;;;;;24.95;12.18;;;6.40;99.90;;;;;;5114373;27;20547;-68
2022/01/16 12:53:08;;;;;;;21.67;11.88;;;6.40;99.90;;;;;;5097764;27;20061;-68
2022/01/16 12:55:35;;;;;;;23.40;11.07;;;6.40;99.90;;;;;;5114860;27;20042;-68
2022/01/16 12:58:22;;;;;;;21.50;11.50;;;6.50;99.90;;;;;;5114650;27;20112;-68
2022/01/16 13:01:05;;;;;;;24.73;10.45;;;6.50;99.90;;;;;;5115046;27;20146;-68
2022/01/16 13:03:32;;;;;;;;;;;6.50;99.90;;;;;;5133014;27;20035;-68
2022/01/16 13:06:27;;;;;;;25.13;10.75;;;6.50;99.90;;;;;;5114489;27;19964;-68
2022/01/16 13:08:55;;;;;;;20.73;10.43;;;6.50;99.90;;;;;;5114241;27;20084;-68
2022/01/16 13:11:22;;;;;;;18.40;9.65;;;6.50;99.90;;;;;;5132830;27;20039;-69
2022/01/16 13:13:48;;;;;;;22.77;10.18;;;6.50;99.90;;;;;;5114297;28;20088;-68
2022/01/16 13:16:37;;;;;;;24.67;10.63;;;6.60;99.90;;;;;;5133840;27;20055;-67
2022/01/16 13:19:12;;;;;;;24.55;10.25;;;6.60;99.90;;;;;;5135037;27;20479;-68
2022/01/16 13:21:42;;;;;;;22.90;10.65;;;6.60;99.90;;;;;;5114023;28;20035;-69
2022/01/16 13:24:08;;;;;;;23.30;10.30;;;6.60;99.90;;;;;;5114694;28;20416;-67
2022/01/16 13:26:34;;;;;;;19.67;10.75;;;6.60;99.90;;;;;;5132683;28;20487;-67
2022/01/16 13:29:03;;;;;;;25.55;10.63;;;6.60;99.90;;;;;;5114448;28;20039;-67
2022/01/16 13:31:29;;;;;;;20.67;10.70;;;6.70;99.90;;;;;;5114510;28;20039;-68
2022/01/16 13:34:13;;;;;;;22.50;10.02;;;6.60;99.90;;;;;;5114128;28;20054;-67